Time;durP1;ratioP1;P1;durP2;ratioP2;P2;SDS_P1;SDS_P2;PMS_P1;PMS_P2;Temp;Humidity;BMP_temperature;BMP_pressure;BME280_temperature;BME280_humidity;BME280_pressure;Samples;Min_cycle;Max_cycle;Signal;HPM_P1;HPM_P2
2021/11/29 00:01:27;;;;;;;16.60;10.00;;;;;;;;;;5108751;28;20020;-69
2021/11/29 00:03:53;;;;;;;16.50;11.00;;;;;;;;;;5110323;28;20353;-69
2021/11/29 00:06:20;;;;;;;17.25;10.25;;;;;;;;;;5109559;28;20028;-69
2021/11/29 00:08:47;;;;;;;14.07;7.15;;;;;;;;;;5108663;28;20047;-69
2021/11/29 00:11:13;;;;;;;12.15;6.85;;;;;;;;;;5098931;28;20016;-69
2021/11/29 00:13:40;;;;;;;9.48;5.18;;;;;;;;;;5095865;28;20034;-69
2021/11/29 00:16:07;;;;;;;9.40;5.82;;;;;;;;;;5096258;28;20016;-69
2021/11/29 00:18:33;;;;;;;13.05;7.35;;;;;;;;;;5096278;28;20024;-69
2021/11/29 00:21:00;;;;;;;26.88;12.32;;;;;;;;;;5095720;28;20028;-69
2021/11/29 00:23:26;;;;;;;21.73;12.27;;;;;;;;;;5096072;28;20095;-69
2021/11/29 00:25:52;;;;;;;11.80;6.57;;;;;;;;;;5096018;28;20027;-69
2021/11/29 00:28:19;;;;;;;12.15;5.32;;;;;;;;;;5095572;28;20496;-69
2021/11/29 00:30:45;;;;;;;7.90;4.43;;;;;;;;;;5095931;28;20027;-66
2021/11/29 00:33:12;;;;;;;5.90;2.95;;;;;;;;;;5094615;28;20020;-66
2021/11/29 00:35:38;;;;;;;6.25;3.00;;;;;;;;;;5095410;28;20043;-69
2021/11/29 00:38:05;;;;;;;8.45;4.65;;;;;;;;;;5095674;28;20056;-69
2021/11/29 00:40:32;;;;;;;10.50;5.43;;;;;;;;;;5095732;28;20052;-69
2021/11/29 00:42:58;;;;;;;9.88;5.38;;;;;;;;;;5095236;28;20529;-69
2021/11/29 00:45:24;;;;;;;10.18;5.35;;;;;;;;;;5095750;28;20028;-69
2021/11/29 00:47:50;;;;;;;11.85;4.80;;;;;;;;;;5095591;28;20032;-69
2021/11/29 00:50:17;;;;;;;8.95;4.95;;;;;;;;;;5095226;28;20021;-67
2021/11/29 00:52:43;;;;;;;11.85;6.50;;;;;;;;;;5095464;28;20020;-67
2021/11/29 00:55:10;;;;;;;12.90;6.65;;;;;;;;;;5095346;28;20387;-66
2021/11/29 00:58:06;;;;;;;9.98;4.60;;;;;;;;;;5111818;27;20718;-67
2021/11/29 01:00:33;;;;;;;7.28;3.17;;;;;;;;;;5111037;28;20081;-67
2021/11/29 01:02:59;;;;;;;8.15;3.67;;;;;;;;;;5110588;28;20531;-67
2021/11/29 01:05:25;;;;;;;7.70;3.80;;;;;;;;;;5110944;28;20027;-67
2021/11/29 01:07:52;;;;;;;6.63;3.38;;;;;;;;;;5110869;28;20031;-68
2021/11/29 01:10:19;;;;;;;4.75;2.42;;;;;;;;;;5126236;28;20057;-67
2021/11/29 01:12:46;;;;;;;5.00;2.83;;;;;;;;;;5110816;28;20031;-68
2021/11/29 01:15:13;;;;;;;7.07;3.47;;;;;;;;;;5110691;28;20479;-67
2021/11/29 01:17:40;;;;;;;8.57;4.57;;;;;;;;;;5110445;28;20039;-67
2021/11/29 01:20:51;;;;;;;11.77;7.20;;;;;;;;;;5111018;27;20419;-67
2021/11/29 01:24:38;;;;;;;6.57;2.88;;;;;;;;;;5110854;27;20123;-66
2021/11/29 01:27:05;;;;;;;6.13;2.88;;;;;;;;;;5111027;28;20023;-69
2021/11/29 01:29:31;;;;;;;5.20;2.30;;;;;;;;;;5111018;28;20066;-69
2021/11/29 01:31:57;;;;;;;7.43;3.55;;;;;;;;;;5110467;28;20464;-69
2021/11/29 01:34:23;;;;;;;7.65;4.90;;;;;;;;;;5111059;28;20050;-69
2021/11/29 01:36:49;;;;;;;9.07;5.55;;;;;;;;;;5110972;28;20433;-69
2021/11/29 01:39:15;;;;;;;9.32;4.75;;;;;;;;;;5110513;28;20020;-67
2021/11/29 01:41:42;;;;;;;7.13;4.05;;;;;;;;;;5110713;28;20483;-69
2021/11/29 01:45:50;;;;;;;7.40;3.40;;;;;;;;;;5090437;27;20455;-66
2021/11/29 01:48:16;;;;;;;8.98;4.53;;;;;;;;;;5090607;28;20063;-69
2021/11/29 01:50:46;;;;;;;8.98;4.15;;;;;;;;;;5090678;28;20024;-69
2021/11/29 01:53:13;;;;;;;7.07;3.65;;;;;;;;;;5072130;28;20365;-68
2021/11/29 01:55:39;;;;;;;4.68;2.40;;;;;;;;;;5072504;28;20028;-69
2021/11/29 01:58:06;;;;;;;3.58;1.80;;;;;;;;;;5090496;28;20028;-68
2021/11/29 02:00:35;;;;;;;3.72;1.90;;;;;;;;;;5090131;28;20035;-67
2021/11/29 02:03:01;;;;;;;5.57;2.17;;;;;;;;;;5090407;28;20052;-67
2021/11/29 02:05:28;;;;;;;3.90;2.13;;;;;;;;;;5090270;28;20039;-67
2021/11/29 02:07:54;;;;;;;2.60;1.38;;;;;;;;;;5090010;28;20016;-67
2021/11/29 02:10:22;;;;;;;3.17;1.73;;;;;;;;;;5090245;28;20472;-68
2021/11/29 02:12:48;;;;;;;2.22;1.30;;;;;;;;;;5072049;28;20391;-67
2021/11/29 02:15:15;;;;;;;4.80;1.73;;;;;;;;;;5089830;28;20031;-67
2021/11/29 02:17:42;;;;;;;5.38;2.35;;;;;;;;;;5090312;28;20384;-67
2021/11/29 02:20:09;;;;;;;4.60;2.05;;;;;;;;;;5089879;28;20484;-68
2021/11/29 02:22:36;;;;;;;6.32;2.85;;;;;;;;;;5090348;28;20021;-68
2021/11/29 02:25:02;;;;;;;5.53;3.05;;;;;;;;;;5090128;28;20036;-67
2021/11/29 02:27:29;;;;;;;7.85;3.60;;;;;;;;;;5089549;28;20033;-67
2021/11/29 02:29:56;;;;;;;5.63;3.00;;;;;;;;;;5090044;28;20119;-67
2021/11/29 02:32:22;;;;;;;8.52;3.75;;;;;;;;;;5089805;28;20031;-67
2021/11/29 02:34:49;;;;;;;5.97;3.17;;;;;;;;;;5089456;28;20085;-67
2021/11/29 02:37:16;;;;;;;5.38;2.72;;;;;;;;;;5090003;28;20426;-67
2021/11/29 02:39:43;;;;;;;5.20;2.33;;;;;;;;;;5090093;28;20032;-67
2021/11/29 02:42:11;;;;;;;6.53;1.90;;;;;;;;;;5089370;28;20026;-68
2021/11/29 02:44:38;;;;;;;4.07;1.45;;;;;;;;;;5089477;28;20399;-67
2021/11/29 02:47:04;;;;;;;1.65;1.02;;;;;;;;;;5089577;28;20036;-67
2021/11/29 02:49:30;;;;;;;1.60;0.90;;;;;;;;;;5089143;28;20025;-67
2021/11/29 02:51:58;;;;;;;1.33;0.70;;;;;;;;;;5089814;28;20143;-68
2021/11/29 02:54:26;;;;;;;3.83;1.52;;;;;;;;;;5089508;28;20479;-68
2021/11/29 02:56:53;;;;;;;2.88;1.25;;;;;;;;;;5076729;28;20424;-68
2021/11/29 02:59:21;;;;;;;2.08;0.82;;;;;;;;;;5075795;28;20024;-68
2021/11/29 03:01:49;;;;;;;3.67;1.20;;;;;;;;;;5075735;28;20013;-67
2021/11/29 03:04:15;;;;;;;1.95;0.93;;;;;;;;;;5075319;28;20028;-68
2021/11/29 03:06:41;;;;;;;2.47;0.88;;;;;;;;;;5075986;28;20020;-68
2021/11/29 03:09:07;;;;;;;2.13;1.13;;;;;;;;;;5075414;28;20067;-68
2021/11/29 03:11:34;;;;;;;2.55;1.33;;;;;;;;;;5075489;28;20024;-67
2021/11/29 03:14:00;;;;;;;1.02;0.65;;;;;;;;;;5075555;28;20530;-67
2021/11/29 03:16:27;;;;;;;3.97;1.17;;;;;;;;;;5075151;28;20082;-68
2021/11/29 03:18:53;;;;;;;2.83;1.10;;;;;;;;;;5075556;28;20020;-67
2021/11/29 03:21:20;;;;;;;2.17;0.90;;;;;;;;;;5075327;28;20047;-68
2021/11/29 03:23:48;;;;;;;0.77;0.50;;;;;;;;;;5075094;28;20499;-67
2021/11/29 03:26:17;;;;;;;0.70;0.60;;;;;;;;;;5075412;28;20107;-67
2021/11/29 03:28:45;;;;;;;1.67;0.75;;;;;;;;;;5075352;28;20017;-68
2021/11/29 03:31:11;;;;;;;3.35;1.17;;;;;;;;;;5074910;28;20136;-68
2021/11/29 03:33:38;;;;;;;4.72;1.77;;;;;;;;;;5057275;28;20027;-68
2021/11/29 03:36:05;;;;;;;9.02;2.30;;;;;;;;;;5075158;28;20024;-67
2021/11/29 03:38:31;;;;;;;5.00;1.90;;;;;;;;;;5074768;28;20020;-68
2021/11/29 03:40:58;;;;;;;3.83;1.77;;;;;;;;;;5075052;28;20067;-67
2021/11/29 03:43:24;;;;;;;10.20;4.82;;;;;;;;;;5057071;28;20490;-67
2021/11/29 03:45:50;;;;;;;2.92;1.42;;;;;;;;;;5074464;28;20052;-67
2021/11/29 03:48:17;;;;;;;3.30;1.50;;;;;;;;;;5074974;28;20058;-67
2021/11/29 03:50:43;;;;;;;14.85;7.32;;;;;;;;;;5074985;28;20085;-67
2021/11/29 03:53:09;;;;;;;7.35;3.72;;;;;;;;;;5074527;28;20518;-68
2021/11/29 03:55:35;;;;;;;4.72;2.13;;;;;;;;;;5074645;28;20457;-68
2021/11/29 03:58:02;;;;;;;16.77;8.18;;;;;;;;;;5074839;28;20392;-67
2021/11/29 04:00:28;;;;;;;18.80;8.05;;;;;;;;;;5074291;28;20040;-68
2021/11/29 04:02:54;;;;;;;12.35;5.13;;;;;;;;;;5074708;28;20100;-68
2021/11/29 04:05:20;;;;;;;8.55;3.30;;;;;;;;;;5056529;28;20037;-67
2021/11/29 04:07:48;;;;;;;3.08;1.50;;;;;;;;;;5073193;28;20092;-67
2021/11/29 04:10:14;;;;;;;5.10;2.50;;;;;;;;;;5074488;28;20027;-68
2021/11/29 04:12:41;;;;;;;6.07;2.95;;;;;;;;;;5074121;28;20025;-68
2021/11/29 04:15:07;;;;;;;5.25;2.50;;;;;;;;;;5074472;28;20032;-68
2021/11/29 04:17:33;;;;;;;3.97;1.80;;;;;;;;;;5074451;28;20028;-67
2021/11/29 04:19:59;;;;;;;3.45;1.45;;;;;;;;;;5073925;28;20020;-68
2021/11/29 04:22:26;;;;;;;2.85;1.17;;;;;;;;;;5074263;28;20024;-67
2021/11/29 04:24:52;;;;;;;3.90;1.92;;;;;;;;;;5074189;28;20039;-67
2021/11/29 04:27:19;;;;;;;3.50;1.70;;;;;;;;;;5073780;28;20021;-67
2021/11/29 04:29:47;;;;;;;5.15;2.45;;;;;;;;;;5074279;28;20358;-68
2021/11/29 04:32:13;;;;;;;4.05;2.20;;;;;;;;;;5074419;28;20021;-68
2021/11/29 04:34:39;;;;;;;3.58;1.73;;;;;;;;;;5073713;28;20096;-68
2021/11/29 04:37:07;;;;;;;5.22;2.53;;;;;;;;;;5073892;28;20092;-67
2021/11/29 04:39:34;;;;;;;14.15;6.82;;;;;;;;;;5073884;28;20036;-68
2021/11/29 04:42:01;;;;;;;30.40;17.27;;;;;;;;;;5073557;28;20421;-68
2021/11/29 04:44:28;;;;;;;41.15;21.15;;;;;;;;;;5073530;28;20049;-68
2021/11/29 04:46:54;;;;;;;32.75;17.67;;;;;;;;;;5073980;28;20048;-67
2021/11/29 04:49:20;;;;;;;23.77;12.95;;;;;;;;;;5073401;28;20020;-67
2021/11/29 04:51:47;;;;;;;21.85;11.52;;;;;;;;;;5073711;28;20025;-68
2021/11/29 04:54:13;;;;;;;15.85;9.50;;;;;;;;;;5073669;28;20017;-67
2021/11/29 04:56:40;;;;;;;15.10;8.57;;;;;;;;;;5073260;28;20032;-68
2021/11/29 04:59:06;;;;;;;19.67;12.27;;;;;;;;;;5073631;28;20444;-68
2021/11/29 05:01:32;;;;;;;15.25;9.63;;;;;;;;;;5073560;28;20469;-67
2021/11/29 05:03:59;;;;;;;15.38;8.68;;;;;;;;;;5073074;28;20491;-67
2021/11/29 05:06:25;;;;;;;12.98;8.10;;;;;;;;;;5073477;28;20032;-68
2021/11/29 05:08:51;;;;;;;9.75;5.60;;;;;;;;;;5073224;28;20366;-68
2021/11/29 05:11:17;;;;;;;10.63;6.00;;;;;;;;;;5073508;28;20056;-68
2021/11/29 05:13:44;;;;;;;8.93;5.00;;;;;;;;;;5073728;28;20023;-68
2021/11/29 05:16:10;;;;;;;8.45;3.88;;;;;;;;;;5072979;28;20362;-69
2021/11/29 05:18:36;;;;;;;11.88;5.25;;;;;;;;;;5073199;28;20495;-69
2021/11/29 05:21:03;;;;;;;10.40;4.90;;;;;;;;;;5073349;28;20033;-69
2021/11/29 05:23:29;;;;;;;12.77;6.75;;;;;;;;;;5072767;28;20381;-69
2021/11/29 05:25:55;;;;;;;25.42;14.65;;;;;;;;;;5055355;28;20112;-69
2021/11/29 05:28:21;;;;;;;10.23;5.43;;;;;;;;;;5073331;28;20021;-69
2021/11/29 05:30:47;;;;;;;8.68;3.90;;;;;;;;;;5072818;28;20025;-69
2021/11/29 05:33:14;;;;;;;7.47;4.05;;;;;;;;;;5073244;28;20100;-69
2021/11/29 05:35:40;;;;;;;7.93;4.45;;;;;;;;;;5073269;28;20023;-69
2021/11/29 05:38:06;;;;;;;8.75;4.90;;;;;;;;;;5072948;28;20388;-69
2021/11/29 05:40:34;;;;;;;23.08;13.75;;;;;;;;;;5073197;28;20017;-69
2021/11/29 05:43:00;;;;;;;42.65;25.88;;;;;;;;;;5073239;28;20059;-69
2021/11/29 05:45:26;;;;;;;37.92;24.92;;;;;;;;;;5072500;28;20048;-67
2021/11/29 05:47:53;;;;;;;29.98;16.50;;;;;;;;;;5072875;28;20028;-68
2021/11/29 05:50:19;;;;;;;23.42;13.25;;;;;;;;;;5072612;28;20025;-68
2021/11/29 05:52:45;;;;;;;33.83;19.95;;;;;;;;;;5072490;28;20021;-68
2021/11/29 05:55:13;;;;;;;57.25;28.63;;;;;;;;;;5054831;28;20036;-68
2021/11/29 05:57:40;;;;;;;42.20;22.27;;;;;;;;;;5072382;28;20055;-68
2021/11/29 06:00:08;;;;;;;31.75;15.63;;;;;;;;;;5045234;28;20040;-69
2021/11/29 06:02:34;;;;;;;13.80;7.78;;;;;;;;;;5072354;28;20017;-67
2021/11/29 06:05:00;;;;;;;14.73;7.13;;;;;;;;;;5072025;28;20168;-67
2021/11/29 06:07:26;;;;;;;8.82;5.20;;;;;;;;;;5072220;28;20031;-68
2021/11/29 06:09:53;;;;;;;9.77;5.05;;;;;;;;;;5053784;28;20369;-66
2021/11/29 06:12:19;;;;;;;7.28;3.72;;;;;;;;;;5070747;28;20032;-66
2021/11/29 06:14:45;;;;;;;5.65;2.85;;;;;;;;;;5053890;28;20025;-66
2021/11/29 06:17:11;;;;;;;11.73;5.53;;;;;;;;;;5071723;28;20025;-67
2021/11/29 06:19:37;;;;;;;14.73;8.82;;;;;;;;;;5070616;28;20024;-66
2021/11/29 06:22:04;;;;;;;17.73;9.75;;;;;;;;;;5054137;28;20491;-68
2021/11/29 06:24:33;;;;;;;13.85;8.02;;;;;;;;;;5072450;28;20048;-68
2021/11/29 06:27:09;;;;;;;12.38;7.10;;;;;;;;;;5073200;28;20488;-70
2021/11/29 06:29:35;;;;;;;19.70;9.35;;;;;;;;;;5073577;28;20020;-68
2021/11/29 06:32:02;;;;;;;24.25;16.52;;;;;;;;;;5079645;28;20608;-67
2021/11/29 06:34:28;;;;;;;42.75;27.42;;;;;;;;;;5063871;28;20039;-68
2021/11/29 06:36:54;;;;;;;31.58;20.17;;;;;;;;;;5075857;28;20027;-68
2021/11/29 06:39:21;;;;;;;27.42;15.20;;;;;;;;;;5075449;28;20108;-68
2021/11/29 06:41:48;;;;;;;34.42;22.77;;;;;;;;;;5072557;28;20507;-68
2021/11/29 06:44:14;;;;;;;25.65;16.38;;;;;;;;;;5074995;28;20091;-67
2021/11/29 06:46:40;;;;;;;26.75;17.10;;;;;;;;;;5072928;28;20036;-67
2021/11/29 06:49:06;;;;;;;20.75;12.82;;;;;;;;;;5075365;28;20056;-67
2021/11/29 06:51:34;;;;;;;21.42;13.73;;;;;;;;;;5075705;28;20478;-67
2021/11/29 06:54:00;;;;;;;18.60;10.68;;;;;;;;;;5074027;28;20017;-68
2021/11/29 06:56:26;;;;;;;16.65;11.00;;;;;;;;;;5073939;28;20032;-68
2021/11/29 06:58:53;;;;;;;22.10;12.57;;;;;;;;;;5075716;28;20017;-67
2021/11/29 07:01:19;;;;;;;21.83;12.88;;;;;;;;;;5072990;28;20028;-68
2021/11/29 07:03:46;;;;;;;21.05;13.10;;;;;;;;;;5075197;28;20052;-67
2021/11/29 07:06:13;;;;;;;14.43;10.18;;;;;;;;;;5075496;28;20151;-67
2021/11/29 07:08:39;;;;;;;34.50;22.35;;;;;;;;;;5072566;28;20701;-69
2021/11/29 07:11:05;;;;;;;43.72;26.35;;;;;;;;;;5075283;28;20028;-68
2021/11/29 07:13:32;;;;;;;34.45;19.42;;;;;;;;;;5095490;28;20027;-69
2021/11/29 07:15:58;;;;;;;36.63;21.23;;;;;;;;;;5076950;28;20440;-68
2021/11/29 07:18:24;;;;;;;70.90;38.17;;;;;;;;;;5096782;28;20111;-69
2021/11/29 07:20:51;;;;;;;48.33;27.40;;;;;;;;;;5079197;28;20048;-68
2021/11/29 07:23:17;;;;;;;39.22;24.10;;;;;;;;;;5069169;28;20021;-68
2021/11/29 07:25:44;;;;;;;35.10;21.95;;;;;;;;;;5053227;28;20071;-65
2021/11/29 07:28:10;;;;;;;32.50;20.80;;;;;;;;;;5054852;28;20060;-68
2021/11/29 07:30:36;;;;;;;57.03;33.55;;;;;;;;;;5073690;28;20483;-67
2021/11/29 07:33:03;;;;;;;40.15;21.80;;;;;;;;;;5075214;28;20031;-67
2021/11/29 07:35:30;;;;;;;29.13;14.15;;;;;;;;;;5074814;28;20020;-68
2021/11/29 07:37:57;;;;;;;16.48;10.18;;;;;;;;;;5074175;28;20032;-68
2021/11/29 07:40:31;;;;;;;15.45;9.30;;;;;;;;;;5055978;28;20021;-67
2021/11/29 07:42:58;;;;;;;16.85;9.90;;;;;;;;;;5075065;28;20025;-68
2021/11/29 07:45:24;;;;;;;18.40;10.73;;;;;;;;;;5072784;28;20126;-68
2021/11/29 07:47:50;;;;;;;18.98;13.57;;;;;;;;;;5074510;28;20017;-67
2021/11/29 07:50:17;;;;;;;18.45;12.15;;;;;;;;;;5074156;28;20078;-68
2021/11/29 07:52:44;;;;;;;22.20;12.75;;;;;;;;;;5073751;28;20361;-70
2021/11/29 07:55:12;;;;;;;18.48;11.45;;;;;;;;;;5074795;28;20025;-69
2021/11/29 07:57:39;;;;;;;12.15;6.07;;;;;;;;;;5073630;28;20029;-68
2021/11/29 08:00:18;;;;;;;11.50;6.75;;;;;;;;;;5074212;28;20311;-69
2021/11/29 08:02:45;;;;;;;20.13;12.65;;;;;;;;;;5074307;28;20040;-68
2021/11/29 08:05:11;;;;;;;13.48;9.38;;;;;;;;;;5056220;28;20047;-68
2021/11/29 08:07:37;;;;;;;16.00;8.02;;;;;;;;;;5074134;28;20444;-68
2021/11/29 08:10:04;;;;;;;14.18;8.85;;;;;;;;;;5073993;28;20048;-70
2021/11/29 08:12:30;;;;;;;21.10;13.38;;;;;;;;;;5073170;28;20059;-67
2021/11/29 08:14:57;;;;;;;23.67;15.20;;;;;;;;;;5056084;28;20102;-68
2021/11/29 08:17:23;;;;;;;32.35;21.92;;;;;;;;;;5074179;28;20413;-68
2021/11/29 08:19:52;;;;;;;22.27;13.50;;;;;;;;;;5073360;28;20037;-68
2021/11/29 08:22:19;;;;;;;39.13;20.55;;;;;;;;;;5074352;28;20013;-68
2021/11/29 08:24:45;;;;;;;20.00;13.30;;;;;;;;;;5073593;28;20036;-68
2021/11/29 08:27:12;;;;;;;18.35;10.50;;;;;;;;;;5072640;28;20058;-68
2021/11/29 08:29:38;;;;;;;24.63;16.30;;;;;;;;;;5072809;28;20037;-71
2021/11/29 08:32:05;;;;;;;19.98;13.73;;;;;;;;;;5072239;28;20031;-70
2021/11/29 08:34:31;;;;;;;23.58;15.75;;;;;;;;;;5072921;28;20104;-69
2021/11/29 08:36:58;;;;;;;31.83;21.65;;;;;;;;;;5054562;28;20070;-69
2021/11/29 08:39:24;;;;;;;27.08;18.80;;;;;;;;;;5073566;28;20021;-71
2021/11/29 08:41:50;;;;;;;27.40;17.52;;;;;;;;;;5072665;28;20098;-70
2021/11/29 08:44:16;;;;;;;32.97;19.40;;;;;;;;;;5058089;28;20504;-70
2021/11/29 08:46:48;;;;;;;29.08;19.42;;;;;;;;;;5072827;28;20025;-70
2021/11/29 08:49:15;;;;;;;31.45;19.38;;;;;;;;;;5071516;28;20484;-69
2021/11/29 08:51:41;;;;;;;42.40;25.23;;;;;;;;;;5072335;28;20029;-69
2021/11/29 08:54:08;;;;;;;43.75;26.92;;;;;;;;;;5071505;28;20031;-70
2021/11/29 08:56:34;;;;;;;40.97;23.40;;;;;;;;;;5071465;28;20033;-70
2021/11/29 09:00:24;;;;;;;21.95;13.30;;;;;;;;;;5110349;27;20907;-68
2021/11/29 09:03:16;;;;;;;19.58;12.65;;;;;;;;;;5150690;27;20322;-69
2021/11/29 09:05:47;;;;;;;19.25;9.60;;;;;;;;;;5130982;27;20054;-70
2021/11/29 09:09:32;;;;;;;15.43;9.85;;;;;;;;;;5087874;27;20444;-69
2021/11/29 09:12:02;;;;;;;20.35;11.45;;;;;;;;;;5086690;28;20089;-70
2021/11/29 09:14:28;;;;;;;20.02;11.88;;;;;;;;;;5087308;28;20139;-69
2021/11/29 09:16:56;;;;;;;15.77;9.40;;;;;;;;;;5088457;28;20025;-70
2021/11/29 09:20:06;;;;;;;13.15;8.63;;;;;;;;;;5109047;27;20396;-68
2021/11/29 09:24:10;;;;;;;11.77;7.15;;;;;;;;;;5089991;27;20897;-70
2021/11/29 09:26:37;;;;;;;12.98;7.40;;;;;;;;;;5089675;28;20115;-69
2021/11/29 09:29:03;;;;;;;10.23;5.05;;;;;;;;;;5089693;28;20074;-68
2021/11/29 09:31:29;;;;;;;7.03;4.32;;;;;;;;;;5089894;28;20480;-69
2021/11/29 09:33:56;;;;;;;7.28;3.95;;;;;;;;;;5088300;28;20028;-69
2021/11/29 09:36:22;;;;;;;8.77;5.45;;;;;;;;;;5089418;28;20500;-68
2021/11/29 09:38:48;;;;;;;10.40;5.35;;;;;;;;;;5089921;28;20109;-68
2021/11/29 09:41:15;;;;;;;16.58;9.77;;;;;;;;;;5089543;28;20077;-68
2021/11/29 09:45:41;;;;;;;12.85;7.35;;;;;;;;;;5110747;27;20450;-69
2021/11/29 09:48:08;;;;;;;14.13;8.20;;;;;;;;;;5109304;28;20089;-68
2021/11/29 09:50:36;;;;;;;11.60;6.90;;;;;;;;;;5109106;28;20023;-69
2021/11/29 09:53:03;;;;;;;17.48;12.52;;;;;;;;;;5110575;28;20081;-69
2021/11/29 09:57:32;;;;;;;29.15;18.15;;;;;;;;;;5049900;28;20455;-68
2021/11/29 09:59:58;;;;;;;21.67;12.77;;;;;;;;;;5049806;28;20100;-67
2021/11/29 10:03:21;;;;;;;34.92;21.65;;;;;;;;;;5110764;27;20934;-70
2021/11/29 10:05:49;;;;;;;35.10;22.35;;;;;;;;;;5110071;28;20081;-69
2021/11/29 10:08:29;;;;;;;26.38;17.10;;;;;;;;;;5110299;28;20402;-70
2021/11/29 10:10:57;;;;;;;24.00;16.02;;;;;;;;;;5110266;28;20077;-68
2021/11/29 10:13:24;;;;;;;21.38;14.32;;;;;;;;;;5109802;28;20103;-67
2021/11/29 10:15:50;;;;;;;24.15;15.98;;;;;;;;;;5110220;28;20452;-68
2021/11/29 10:18:21;;;;;;;17.73;12.90;;;;;;;;;;5095290;28;20028;-68
2021/11/29 10:20:49;;;;;;;13.88;9.50;;;;;;;;;;5102098;28;20070;-69
2021/11/29 10:23:16;;;;;;;12.00;6.45;;;;;;;;;;5108939;28;20441;-68
2021/11/29 10:26:35;;;;;;;15.90;9.77;;;;;;;;;;5129903;27;20116;-69
2021/11/29 10:29:01;;;;;;;17.70;9.75;;;;;;;;;;5110534;28;20391;-68
2021/11/29 10:31:33;;;;;;;16.60;9.85;;;;;;;;;;5092120;28;20034;-68
2021/11/29 10:34:03;;;;;;;13.50;7.95;;;;;;;;;;5108190;28;20028;-68
2021/11/29 10:38:44;;;;;;;16.55;10.10;;;;;;;;;;5110293;27;20422;-70
2021/11/29 10:41:42;;;;;;;14.80;8.50;;;;;;;;;;5130118;27;20575;-68
2021/11/29 10:44:11;;;;;;;15.05;8.05;;;;;;;;;;5110026;28;20042;-69
2021/11/29 10:47:22;;;;;;;14.63;7.07;;;;;;;;;;5129668;27;20413;-67
2021/11/29 10:49:51;;;;;;;13.23;6.75;;;;;;;;;;5130540;28;20023;-67
2021/11/29 10:52:22;;;;;;;14.65;8.20;;;;;;;;;;5129423;28;20425;-68
2021/11/29 10:54:48;;;;;;;9.10;4.40;;;;;;;;;;5129952;28;20023;-66
2021/11/29 10:57:16;;;;;;;5.82;2.17;;;;;;;;;;5130673;28;20020;-67
2021/11/29 10:59:43;;;;;;;9.18;3.95;;;;;;;;;;5130783;28;20405;-68
2021/11/29 11:02:14;;;;;;;15.82;9.30;;;;;;;;;;5128294;28;20052;-68
2021/11/29 11:04:43;;;;;;;12.23;6.10;;;;;;;;;;5130738;28;20038;-69
2021/11/29 11:07:13;;;;;;;15.88;4.10;;;;;;;;;;5130387;28;20039;-69
2021/11/29 11:09:40;;;;;;;6.68;3.80;;;;;;;;;;5128161;28;20166;-69
2021/11/29 11:12:15;;;;;;;5.43;2.65;;;;;;;;;;5125586;28;20386;-69
2021/11/29 11:14:48;;;;;;;6.63;2.72;;;;;;;;;;5129946;28;20019;-69
2021/11/29 11:17:15;;;;;;;6.30;2.10;;;;;;;;;;5130270;28;20102;-69
2021/11/29 11:19:46;;;;;;;4.18;1.95;;;;;;;;;;5130092;28;20098;-69
2021/11/29 11:24:20;;;;;;;4.82;2.35;;;;;;;;;;5109078;27;20397;-68
2021/11/29 11:26:48;;;;;;;8.07;4.18;;;;;;;;;;5108066;28;20062;-68
2021/11/29 11:29:14;;;;;;;2.45;1.13;;;;;;;;;;5107214;28;20387;-68
2021/11/29 11:34:36;;;;;;;3.95;1.10;;;;;;;;;;5092982;27;20398;-67
2021/11/29 11:37:03;;;;;;;6.80;1.83;;;;;;;;;;5089209;28;20036;-68
2021/11/29 11:40:31;;;;;;;2.22;1.08;;;;;;;;;;5110190;27;20847;-69
2021/11/29 11:42:58;;;;;;;2.78;1.17;;;;;;;;;;5110119;28;20089;-68
2021/11/29 11:46:21;;;;;;;1.75;1.00;;;;;;;;;;5110498;27;20913;-70
2021/11/29 11:48:48;;;;;;;1.83;0.70;;;;;;;;;;5110079;28;20055;-68
2021/11/29 11:52:15;;;;;;;4.05;1.55;;;;;;;;;;5110391;27;20843;-69
2021/11/29 11:56:20;;;;;;;4.40;2.10;;;;;;;;;;5110944;27;20397;-68
2021/11/29 11:58:54;;;;;;;3.08;1.40;;;;;;;;;;5110613;28;20032;-71
2021/11/29 12:05:31;;;;;;;2.88;1.33;;;;;;;;;;5110626;27;20430;-69
2021/11/29 12:09:07;;;;;;;4.63;1.40;;;;;;;;;;5110670;27;20466;-70
2021/11/29 12:11:34;;;;;;;4.05;1.65;;;;;;;;;;5110709;28;20081;-69
2021/11/29 12:14:06;;;;;;;3.15;1.17;;;;;;;;;;5110927;28;20073;-69
2021/11/29 12:16:32;;;;;;;3.58;1.48;;;;;;;;;;5111138;28;20028;-70
2021/11/29 12:18:58;;;;;;;3.92;1.85;;;;;;;;;;5110628;28;20537;-70
2021/11/29 12:21:33;;;;;;;8.63;2.85;;;;;;;;;;5110778;28;20036;-67
2021/11/29 12:24:20;;;;;;;3.67;1.70;;;;;;;;;;5111283;27;20400;-68
2021/11/29 12:30:34;;;;;;;4.88;1.65;;;;;;;;;;5106569;27;20397;-70
2021/11/29 12:33:24;;;;;;;2.45;1.35;;;;;;;;;;5061648;27;1498618;-70
2021/11/29 12:35:58;;;;;;;2.00;0.82;;;;;;;;;;5083500;28;20491;-69
2021/11/29 12:38:24;;;;;;;6.47;3.88;;;;;;;;;;5078715;28;20150;-69
2021/11/29 12:41:05;;;;;;;4.28;2.38;;;;;;;;;;5069487;28;20031;-68
2021/11/29 12:46:22;;;;;;;23.23;7.50;;;;;;;;;;5110429;27;20385;-68
2021/11/29 12:48:48;;;;;;;24.88;10.43;;;;;;;;;;5110688;28;20024;-68
2021/11/29 12:51:42;;;;;;;16.20;7.10;;;;;;;;;;5069043;28;20845;-68
2021/11/29 12:54:27;;;;;;;7.63;3.20;;;;;;;;;;5069800;28;20126;-67
2021/11/29 13:00:06;;;;;;;12.02;5.93;;;;;;;;;;5110385;27;20113;-68
2021/11/29 13:05:29;;;;;;;9.68;3.42;;;;;;;;;;5069304;28;20399;-68
2021/11/29 13:08:19;;;;;;;11.35;3.55;;;;;;;;;;5069858;28;20035;-68
2021/11/29 13:11:35;;;;;;;9.73;2.90;;;;;;;;;;5110384;27;20449;-70
2021/11/29 13:16:32;;;;;;;7.40;3.17;;;;;;;;;;5110653;27;20389;-67
2021/11/29 13:20:39;;;;;;;7.32;3.30;;;;;;;;;;5110268;27;20119;-68
2021/11/29 13:23:06;;;;;;;8.52;4.43;;;;;;;;;;5110207;28;20059;-66
2021/11/29 13:25:32;;;;;;;13.52;6.13;;;;;;;;;;5109106;28;20391;-67
2021/11/29 13:27:58;;;;;;;13.07;5.88;;;;;;;;;;5109674;28;20031;-69
2021/11/29 13:30:28;;;;;;;6.63;2.58;;;;;;;;;;5110714;28;20016;-67
2021/11/29 13:35:49;;;;;;;8.90;3.30;;;;;;;;;;5109739;27;20392;-66
2021/11/29 13:38:15;;;;;;;7.32;1.42;;;;;;;;;;5110573;28;20114;-66
2021/11/29 13:40:42;;;;;;;3.80;1.75;;;;;;;;;;5110453;28;20023;-66
2021/11/29 13:43:24;;;;;;;10.18;3.33;;;;;;;;;;5109665;27;20396;-66
2021/11/29 13:45:50;;;;;;;5.18;2.55;;;;;;;;;;5110658;28;20024;-66
2021/11/29 13:50:07;;;;;;;6.38;2.00;;;;;;;;;;5109777;27;20397;-66
2021/11/29 13:52:34;;;;;;;7.63;2.38;;;;;;;;;;5110837;28;20036;-67
2021/11/29 13:56:52;;;;;;;7.65;3.20;;;;;;;;;;5109656;27;20426;-67
2021/11/29 13:59:18;;;;;;;12.32;6.32;;;;;;;;;;5110620;28;20024;-68
2021/11/29 14:01:44;;;;;;;13.77;7.25;;;;;;;;;;5110651;28;20024;-68
2021/11/29 14:04:10;;;;;;;10.15;5.18;;;;;;;;;;5109903;28;20103;-67
2021/11/29 14:06:36;;;;;;;11.13;6.13;;;;;;;;;;5107770;28;20031;-67
2021/11/29 14:09:03;;;;;;;9.13;5.60;;;;;;;;;;5100097;28;20801;-67
2021/11/29 14:11:29;;;;;;;7.75;3.53;;;;;;;;;;5088923;28;20115;-66
2021/11/29 14:14:02;;;;;;;5.53;2.45;;;;;;;;;;5110387;28;20530;-66
2021/11/29 14:16:50;;;;;;;7.78;4.30;;;;;;;;;;5110272;28;20484;-66
2021/11/29 14:20:31;;;;;;;10.00;4.57;;;;;;;;;;5110166;27;20884;-66
2021/11/29 14:24:46;;;;;;;9.20;3.72;;;;;;;;;;5108835;27;21004;-67
2021/11/29 14:28:47;;;;;;;15.68;7.20;;;;;;;;;;5110894;27;20385;-66
2021/11/29 14:31:30;;;;;;;8.68;3.78;;;;;;;;;;5110628;27;20435;-69
2021/11/29 14:33:57;;;;;;;29.88;12.95;;;;;;;;;;5110894;28;20399;-69
2021/11/29 14:36:27;;;;;;;21.27;9.77;;;;;;;;;;5109498;28;20103;-70
2021/11/29 14:38:54;;;;;;;23.35;10.95;;;;;;;;;;5110346;28;20024;-68
2021/11/29 14:41:20;;;;;;;24.40;12.00;;;;;;;;;;5110628;28;20495;-68
2021/11/29 14:45:56;;;;;;;9.75;4.57;;;;;;;;;;5110296;27;20445;-70
2021/11/29 14:48:22;;;;;;;8.07;3.92;;;;;;;;;;5111040;28;20035;-70
2021/11/29 14:50:50;;;;;;;10.50;4.10;;;;;;;;;;5110570;28;20020;-70
2021/11/29 14:53:49;;;;;;;9.52;4.65;;;;;;;;;;5110986;27;20438;-69
2021/11/29 14:57:56;;;;;;;10.23;4.07;;;;;;;;;;5111538;27;20422;-69
2021/11/29 15:00:24;;;;;;;11.32;4.18;;;;;;;;;;5110644;28;20059;-69
2021/11/29 15:06:59;;;;;;;12.85;6.10;;;;;;;;;;5102209;27;20123;-69
2021/11/29 15:13:37;;;;;;;12.57;6.00;;;;;;;;;;5110580;27;20486;-69
2021/11/29 15:18:13;;;;;;;14.10;7.20;;;;;;;;;;5111112;27;20463;-69
2021/11/29 15:20:43;;;;;;;12.32;6.97;;;;;;;;;;5110469;28;20024;-68
2021/11/29 15:23:10;;;;;;;22.58;12.85;;;;;;;;;;5110030;28;20024;-69
2021/11/29 15:27:40;;;;;;;18.40;10.23;;;;;;;;;;5110743;27;20449;-69
2021/11/29 15:30:10;;;;;;;19.15;11.95;;;;;;;;;;5110846;28;20027;-68
2021/11/29 15:32:44;;;;;;;38.67;24.35;;;;;;;;;;5110816;28;20024;-69
2021/11/29 15:35:12;;;;;;;32.65;18.23;;;;;;;;;;5108705;28;20471;-69
2021/11/29 15:37:40;;;;;;;40.65;25.70;;;;;;;;;;5110511;28;20024;-69
2021/11/29 15:40:24;;;;;;;43.97;27.02;;;;;;;;;;5110666;28;20028;-69
2021/11/29 15:42:50;;;;;;;;;;;;;;;;;;5110560;28;20099;-69
2021/11/29 15:45:17;;;;;;;27.88;16.00;;;;;;;;;;5110558;28;19939;-69
2021/11/29 15:47:46;;;;;;;32.78;19.08;;;;;;;;;;5110647;28;20103;-69
2021/11/29 15:50:12;;;;;;;50.78;33.30;;;;;;;;;;5109985;28;20491;-68
2021/11/29 15:52:39;;;;;;;48.80;28.48;;;;;;;;;;5108985;28;20028;-69
2021/11/29 15:55:06;;;;;;;33.83;23.67;;;;;;;;;;5110553;28;20383;-69